Time;durP1;ratioP1;P1;durP2;ratioP2;P2;SDS_P1;SDS_P2;PMS_P1;PMS_P2;Temp;Humidity;BMP_temperature;BMP_pressure;BME280_temperature;BME280_humidity;BME280_pressure;Samples;Min_cycle;Max_cycle;Signal;HPM_P1;HPM_P2
2023/07/26 04:32:30;;;;;;;13.10;6.45;;;15.60;81.60;;;;;;4905896;29;20053;-74
2023/07/26 04:34:56;;;;;;;12.02;6.50;;;15.70;81.30;;;;;;4916464;29;20099;-74
2023/07/26 04:37:22;;;;;;;13.52;7.10;;;15.60;81.60;;;;;;4902828;29;20484;-74
2023/07/26 04:39:48;;;;;;;10.80;5.90;;;15.60;81.70;;;;;;4902453;29;20404;-74
2023/07/26 04:42:14;;;;;;;12.65;6.57;;;15.70;81.50;;;;;;4902725;29;20032;-74
2023/07/26 04:44:39;;;;;;;13.13;6.60;;;15.70;81.50;;;;;;4902525;29;20028;-74
2023/07/26 04:47:05;;;;;;;13.80;6.65;;;15.70;81.40;;;;;;4900717;29;20043;-74
2023/07/26 04:49:31;;;;;;;14.35;6.57;;;15.70;81.30;;;;;;4902592;29;20037;-77
2023/07/26 04:51:56;;;;;;;14.35;6.97;;;15.70;81.10;;;;;;4902537;29;20040;-79
2023/07/26 04:54:22;;;;;;;12.75;6.70;;;15.60;81.40;;;;;;4902103;29;20036;-80
2023/07/26 04:56:47;;;;;;;13.13;6.35;;;15.60;81.80;;;;;;4901423;29;20040;-80
2023/07/26 04:59:14;;;;;;;13.18;7.18;;;15.60;81.80;;;;;;4901373;29;20072;-77
2023/07/26 05:01:40;;;;;;;11.88;6.70;;;15.60;81.80;;;;;;4893802;29;20043;-79
2023/07/26 05:04:05;;;;;;;12.13;6.18;;;15.60;81.80;;;;;;4897397;29;20024;-81
2023/07/26 05:06:31;;;;;;;14.32;6.53;;;15.70;81.70;;;;;;4895944;29;20032;-81
2023/07/26 05:08:57;;;;;;;13.75;7.10;;;15.80;81.70;;;;;;4899720;29;20108;-81
2023/07/26 05:11:23;;;;;;;13.98;6.85;;;15.80;81.70;;;;;;4906448;29;20443;-83
2023/07/26 05:13:49;;;;;;;14.13;7.05;;;15.70;81.90;;;;;;4902236;29;20079;-81
2023/07/26 05:16:15;;;;;;;14.15;7.05;;;15.70;81.90;;;;;;4902732;29;20029;-80
2023/07/26 05:18:40;;;;;;;13.43;7.05;;;15.80;81.90;;;;;;4885703;29;20092;-80
2023/07/26 05:21:06;;;;;;;11.82;6.53;;;15.80;81.70;;;;;;4909373;29;20119;-80
2023/07/26 05:23:32;;;;;;;14.30;6.53;;;15.80;81.70;;;;;;4901285;29;20033;-81
2023/07/26 05:25:57;;;;;;;14.25;7.25;;;15.80;81.70;;;;;;4885731;29;20029;-75
2023/07/26 05:28:23;;;;;;;19.05;7.50;;;15.80;81.70;;;;;;4900743;29;20112;-76
2023/07/26 05:30:49;;;;;;;16.17;7.90;;;15.80;81.90;;;;;;4900513;29;20052;-76
2023/07/26 05:33:15;;;;;;;19.17;8.55;;;15.80;82.00;;;;;;4917092;29;20032;-76
2023/07/26 05:35:41;;;;;;;19.85;8.73;;;15.80;82.10;;;;;;4920940;29;20020;-76
2023/07/26 05:38:06;;;;;;;16.40;7.78;;;15.80;82.00;;;;;;4903669;29;20127;-76
2023/07/26 05:40:33;;;;;;;18.10;8.35;;;15.90;82.00;;;;;;4900417;29;20028;-76
2023/07/26 05:42:58;;;;;;;17.00;8.13;;;15.90;81.70;;;;;;4885674;29;20032;-79
2023/07/26 05:45:24;;;;;;;17.48;8.45;;;15.90;82.00;;;;;;4916744;29;20043;-77
2023/07/26 05:47:49;;;;;;;16.48;8.07;;;16.00;81.70;;;;;;4919028;29;20036;-78
2023/07/26 05:50:15;;;;;;;15.57;7.65;;;16.00;81.50;;;;;;4902466;29;20062;-78
2023/07/26 05:52:41;;;;;;;17.23;7.68;;;16.10;81.70;;;;;;4896324;29;20017;-77
2023/07/26 05:55:07;;;;;;;17.55;7.60;;;16.10;81.80;;;;;;4901651;29;20444;-76
2023/07/26 05:57:33;;;;;;;13.85;7.57;;;16.00;81.90;;;;;;4890002;29;20036;-76
2023/07/26 06:00:00;;;;;;;17.77;7.72;;;16.10;81.90;;;;;;4900770;29;20032;-76
2023/07/26 06:02:25;;;;;;;16.45;7.15;;;16.10;81.90;;;;;;4910131;29;20446;-77
2023/07/26 06:04:51;;;;;;;13.32;7.55;;;16.20;81.90;;;;;;4911852;29;20025;-76
2023/07/26 06:07:17;;;;;;;14.77;6.70;;;16.30;81.70;;;;;;4900769;29;20033;-76
2023/07/26 06:09:43;;;;;;;14.38;6.20;;;16.30;81.50;;;;;;4907342;29;20024;-76
2023/07/26 06:12:09;;;;;;;14.60;6.32;;;16.40;81.30;;;;;;4900501;29;20399;-77
2023/07/26 06:14:36;;;;;;;13.52;5.82;;;16.50;81.10;;;;;;4917181;29;20160;-76
2023/07/26 06:17:01;;;;;;;15.85;7.93;;;16.50;81.10;;;;;;4917615;29;20499;-77
2023/07/26 06:19:27;;;;;;;13.40;6.28;;;16.50;81.40;;;;;;4919645;29;20050;-76
2023/07/26 06:21:55;;;;;;;12.25;6.03;;;16.50;81.60;;;;;;4903250;29;20032;-77
2023/07/26 06:24:25;;;;;;;13.75;6.40;;;16.60;81.30;;;;;;4908064;29;20032;-77
2023/07/26 06:26:52;;;;;;;13.52;5.95;;;16.80;81.10;;;;;;4900595;29;20604;-77
2023/07/26 06:29:17;;;;;;;13.25;6.03;;;16.90;80.70;;;;;;4901051;29;20029;-77
2023/07/26 06:31:43;;;;;;;11.32;5.65;;;16.90;80.40;;;;;;4904442;29;20048;-77
2023/07/26 06:34:08;;;;;;;11.23;6.22;;;17.00;80.20;;;;;;4919186;29;20749;-77
2023/07/26 06:36:34;;;;;;;14.40;5.68;;;17.00;80.00;;;;;;4900666;29;20036;-77
2023/07/26 06:39:00;;;;;;;10.02;6.13;;;17.00;80.40;;;;;;4900413;29;20029;-77
2023/07/26 06:41:25;;;;;;;13.13;6.13;;;17.00;80.20;;;;;;4883977;29;20025;-78
2023/07/26 06:43:51;;;;;;;13.07;5.88;;;17.10;80.00;;;;;;4906402;29;20035;-77
2023/07/26 06:46:17;;;;;;;13.98;5.93;;;17.10;80.00;;;;;;4919340;29;20028;-77
2023/07/26 06:48:44;;;;;;;12.98;5.78;;;17.10;79.70;;;;;;4919676;29;20072;-77
2023/07/26 06:51:10;;;;;;;16.42;5.75;;;16.90;80.00;;;;;;4910197;29;20806;-77
2023/07/26 06:53:35;;;;;;;13.25;5.60;;;16.90;80.30;;;;;;4900660;29;20060;-77
2023/07/26 06:56:01;;;;;;;13.15;5.60;;;16.80;80.30;;;;;;4900549;29;20036;-77
2023/07/26 06:58:27;;;;;;;11.55;5.63;;;16.80;80.90;;;;;;4899341;29;20067;-77
2023/07/26 07:01:00;;;;;;;14.40;5.97;;;16.90;81.00;;;;;;4899678;29;20460;-77
2023/07/26 07:03:28;;;;;;;9.68;5.20;;;17.20;80.40;;;;;;4896016;29;20032;-77
2023/07/26 07:05:53;;;;;;;11.63;4.95;;;17.50;79.80;;;;;;4910725;29;20059;-77
2023/07/26 07:08:19;;;;;;;11.77;5.45;;;17.60;78.40;;;;;;4911060;29;20074;-77
2023/07/26 07:10:45;;;;;;;11.68;5.53;;;17.70;78.60;;;;;;4907321;29;20040;-77
2023/07/26 07:13:10;;;;;;;10.57;5.60;;;17.90;78.00;;;;;;4917902;29;20028;-77
2023/07/26 07:15:37;;;;;;;14.52;5.47;;;18.00;78.10;;;;;;4918589;29;20015;-76
2023/07/26 07:18:02;;;;;;;14.10;6.47;;;18.20;77.80;;;;;;4918689;29;20115;-77
2023/07/26 07:20:28;;;;;;;10.05;5.10;;;18.30;77.10;;;;;;4917221;29;20071;-77
2023/07/26 07:22:54;;;;;;;15.85;4.88;;;18.30;77.10;;;;;;4915426;29;20043;-77
2023/07/26 07:25:20;;;;;;;9.48;4.75;;;18.30;77.40;;;;;;4901485;29;20034;-77
2023/07/26 07:27:45;;;;;;;11.32;5.03;;;18.30;77.00;;;;;;4918859;29;20060;-78
2023/07/26 07:30:12;;;;;;;13.13;5.20;;;18.50;76.50;;;;;;4904182;29;20092;-75
2023/07/26 07:32:38;;;;;;;10.20;4.70;;;18.60;76.50;;;;;;4912187;29;20127;-76
2023/07/26 07:35:07;;;;;;;11.82;4.53;;;18.80;76.00;;;;;;4922636;29;20064;-76
2023/07/26 07:37:33;;;;;;;9.65;4.38;;;18.80;75.00;;;;;;4904144;29;20384;-76
2023/07/26 07:39:59;;;;;;;9.85;3.88;;;18.90;75.80;;;;;;4903680;29;20087;-75
2023/07/26 07:42:25;;;;;;;9.30;4.70;;;19.00;75.50;;;;;;4903973;29;20116;-76
2023/07/26 07:44:51;;;;;;;9.32;4.57;;;19.30;74.60;;;;;;4886771;29;20064;-76
2023/07/26 07:47:16;;;;;;;7.03;3.95;;;19.30;73.80;;;;;;4902861;29;20041;-75
2023/07/26 07:49:42;;;;;;;10.90;4.22;;;19.50;72.40;;;;;;4889808;29;20488;-76
2023/07/26 07:52:08;;;;;;;8.40;3.63;;;19.60;72.60;;;;;;4903875;29;20511;-76
2023/07/26 07:54:33;;;;;;;9.95;4.00;;;19.60;72.70;;;;;;4897405;29;20032;-75
2023/07/26 07:56:59;;;;;;;13.02;6.07;;;19.80;71.90;;;;;;4905823;29;20028;-76
2023/07/26 07:59:25;;;;;;;9.93;4.03;;;19.90;71.20;;;;;;4887836;29;20040;-77
2023/07/26 08:01:50;;;;;;;8.95;4.05;;;20.00;69.80;;;;;;4916130;29;20036;-77
2023/07/26 08:04:17;;;;;;;8.40;3.40;;;20.10;70.60;;;;;;4917373;29;20166;-76
2023/07/26 08:06:42;;;;;;;10.70;4.05;;;20.20;70.10;;;;;;4900689;29;20071;-76
2023/07/26 08:09:08;;;;;;;7.50;3.30;;;20.30;68.50;;;;;;4922002;29;20503;-76
2023/07/26 08:11:33;;;;;;;17.67;3.90;;;20.40;69.30;;;;;;4918881;29;20020;-76
2023/07/26 08:13:59;;;;;;;10.43;3.80;;;20.40;68.40;;;;;;4921588;29;20039;-77
2023/07/26 08:16:25;;;;;;;9.20;3.80;;;20.60;68.10;;;;;;4921783;29;20025;-76
2023/07/26 08:18:50;;;;;;;8.30;3.10;;;20.80;68.20;;;;;;4904437;29;20079;-76
2023/07/26 08:21:16;;;;;;;9.70;3.30;;;21.00;66.50;;;;;;4919985;29;20456;-76
2023/07/26 08:23:41;;;;;;;8.82;3.40;;;21.50;66.20;;;;;;4920461;29;21001;-78
2023/07/26 08:26:09;;;;;;;12.05;3.00;;;22.20;63.40;;;;;;4919823;29;20036;-77
2023/07/26 08:28:35;;;;;;;8.13;3.20;;;22.30;63.10;;;;;;4904851;29;20059;-77
2023/07/26 08:31:01;;;;;;;9.35;3.45;;;22.20;62.50;;;;;;4918578;29;20036;-76
2023/07/26 08:33:26;;;;;;;7.18;3.10;;;22.50;62.80;;;;;;4918764;29;20505;-76
2023/07/26 08:35:52;;;;;;;12.52;3.63;;;22.70;62.80;;;;;;4919260;29;20487;-76
2023/07/26 08:38:18;;;;;;;8.32;3.20;;;23.10;61.40;;;;;;4921110;29;20871;-76
2023/07/26 08:40:48;;;;;;;8.55;3.20;;;23.20;61.00;;;;;;4921604;29;20518;-77
2023/07/26 08:43:17;;;;;;;9.68;2.88;;;23.20;61.50;;;;;;4903233;29;20483;-76
2023/07/26 08:45:43;;;;;;;11.38;3.08;;;23.30;59.10;;;;;;4916042;29;20035;-76
2023/07/26 08:48:09;;;;;;;7.05;2.55;;;23.60;59.40;;;;;;4903904;29;20048;-76
2023/07/26 08:50:38;;;;;;;9.77;2.55;;;24.00;58.70;;;;;;4917234;29;20103;-77
2023/07/26 08:53:05;;;;;;;8.40;3.67;;;24.00;58.60;;;;;;4913016;29;20043;-76
2023/07/26 08:55:31;;;;;;;6.22;2.90;;;23.80;59.00;;;;;;4921332;29;20436;-76
2023/07/26 08:58:00;;;;;;;9.85;2.88;;;23.60;59.60;;;;;;4903562;29;20024;-77
2023/07/26 09:00:27;;;;;;;7.05;3.10;;;23.70;59.50;;;;;;4919447;29;20486;-76
2023/07/26 09:02:55;;;;;;;9.07;2.80;;;23.70;59.70;;;;;;4921151;29;20032;-77
2023/07/26 09:05:21;;;;;;;6.75;2.80;;;23.70;59.10;;;;;;4919447;29;20087;-76
2023/07/26 09:07:51;;;;;;;7.00;3.10;;;23.80;60.10;;;;;;4903883;29;20028;-76
2023/07/26 09:10:22;;;;;;;8.73;2.55;;;23.80;59.90;;;;;;4901886;29;20088;-76
2023/07/26 09:12:50;;;;;;;8.63;2.60;;;23.60;59.60;;;;;;4915442;29;20024;-77
2023/07/26 09:15:18;;;;;;;7.97;3.25;;;23.40;59.70;;;;;;4920605;29;20570;-77
2023/07/26 09:17:44;;;;;;;8.80;2.63;;;23.50;60.20;;;;;;4919218;29;20039;-76
2023/07/26 09:20:21;;;;;;;8.70;2.88;;;23.50;59.10;;;;;;4920587;29;20423;-76
2023/07/26 09:22:47;;;;;;;9.80;2.75;;;23.60;59.50;;;;;;4900109;29;20044;-76
2023/07/26 09:25:12;;;;;;;13.02;3.22;;;23.60;60.00;;;;;;4900771;29;20039;-76
2023/07/26 09:27:55;;;;;;;7.10;2.78;;;23.50;59.70;;;;;;4919358;29;20051;-76
2023/07/26 09:30:21;;;;;;;8.35;3.33;;;23.70;60.00;;;;;;4920188;29;20534;-76
2023/07/26 09:32:47;;;;;;;9.52;2.85;;;23.50;59.30;;;;;;4903776;29;20032;-76
2023/07/26 09:35:12;;;;;;;5.55;2.78;;;23.40;59.70;;;;;;4901156;29;20028;-76
2023/07/26 09:37:38;;;;;;;7.32;2.95;;;23.80;58.90;;;;;;4920113;29;20036;-76
2023/07/26 09:40:05;;;;;;;11.63;3.10;;;23.60;59.10;;;;;;4919044;29;20024;-76
2023/07/26 09:42:51;;;;;;;6.05;2.40;;;23.60;58.90;;;;;;4919270;29;20757;-76
2023/07/26 09:45:21;;;;;;;5.55;2.30;;;24.20;57.40;;;;;;4918012;29;20051;-77
2023/07/26 09:47:47;;;;;;;6.75;2.13;;;25.10;55.90;;;;;;4903145;29;20043;-77
2023/07/26 09:50:26;;;;;;;11.10;2.42;;;25.60;55.00;;;;;;4919909;29;20032;-77
2023/07/26 09:52:54;;;;;;;5.90;2.10;;;26.80;52.30;;;;;;4913409;29;20035;-77
2023/07/26 09:55:24;;;;;;;5.70;2.17;;;26.90;50.30;;;;;;4902617;29;20111;-77
2023/07/26 09:57:52;;;;;;;5.00;2.10;;;26.00;52.70;;;;;;4914883;29;20047;-77
2023/07/26 10:00:18;;;;;;;9.30;2.72;;;26.00;53.60;;;;;;4902415;29;20146;-78
2023/07/26 10:02:48;;;;;;;5.93;2.20;;;25.90;52.30;;;;;;4917871;29;20464;-77
2023/07/26 10:05:18;;;;;;;7.88;3.13;;;25.60;53.20;;;;;;4901580;29;20415;-78
2023/07/26 10:07:44;;;;;;;7.47;2.25;;;25.00;54.40;;;;;;4915299;29;20064;-77
2023/07/26 10:10:11;;;;;;;6.03;2.13;;;24.50;55.50;;;;;;4902103;29;20033;-77
2023/07/26 10:12:39;;;;;;;7.25;2.20;;;24.20;56.70;;;;;;4916850;29;20028;-77
2023/07/26 10:15:09;;;;;;;6.95;2.10;;;24.00;56.50;;;;;;4919948;29;20059;-77
2023/07/26 10:17:35;;;;;;;6.13;2.10;;;23.90;58.10;;;;;;4900644;29;20410;-77
2023/07/26 10:20:02;;;;;;;4.57;2.10;;;23.80;57.10;;;;;;4919094;29;20095;-78
2023/07/26 10:22:29;;;;;;;5.75;2.20;;;23.80;57.80;;;;;;4919925;29;20107;-77
2023/07/26 10:24:54;;;;;;;5.88;2.30;;;24.10;57.90;;;;;;4919910;29;20050;-77
2023/07/26 10:27:22;;;;;;;5.70;2.30;;;23.90;57.60;;;;;;4918091;29;20115;-77
2023/07/26 10:29:47;;;;;;;4.85;2.30;;;24.00;58.60;;;;;;4902671;29;20024;-77
2023/07/26 10:32:13;;;;;;;7.20;2.33;;;24.00;58.60;;;;;;4917971;29;20052;-77
2023/07/26 10:34:39;;;;;;;7.68;3.25;;;24.00;58.80;;;;;;4919189;29;20027;-77
2023/07/26 10:37:16;;;;;;;7.05;2.25;;;24.30;58.30;;;;;;4902025;29;20032;-77
2023/07/26 10:39:42;;;;;;;8.02;2.45;;;24.20;57.80;;;;;;4899830;29;20111;-77
2023/07/26 10:42:29;;;;;;;8.75;2.75;;;24.00;57.80;;;;;;4902513;29;20083;-77
2023/07/26 10:45:01;;;;;;;6.47;2.20;;;23.80;59.50;;;;;;4900585;29;20103;-77
2023/07/26 10:47:26;;;;;;;4.70;2.40;;;23.90;59.10;;;;;;4902386;29;20040;-77
2023/07/26 10:50:03;;;;;;;5.78;2.22;;;23.90;59.70;;;;;;4916959;29;20287;-77
2023/07/26 10:52:36;;;;;;;7.70;2.50;;;23.80;59.50;;;;;;4916139;29;20107;-77
2023/07/26 10:55:18;;;;;;;;;;;23.60;59.50;;;;;;4902024;29;20024;-77
2023/07/26 10:57:49;;;;;;;8.60;2.67;;;23.50;60.70;;;;;;4916647;29;19918;-77
2023/07/26 11:00:23;;;;;;;7.60;2.42;;;23.40;61.40;;;;;;4914431;29;20036;-77
2023/07/26 11:02:58;;;;;;;3.72;2.25;;;23.50;61.70;;;;;;4899327;29;20491;-77
2023/07/26 11:05:25;;;;;;;7.30;2.60;;;23.80;61.60;;;;;;4900690;29;20031;-77
2023/07/26 11:08:01;;;;;;;7.05;3.10;;;23.90;60.50;;;;;;4896519;29;20032;-77
2023/07/26 11:10:30;;;;;;;5.85;2.47;;;23.90;60.90;;;;;;4899125;29;20496;-77
2023/07/26 11:13:26;;;;;;;6.70;2.38;;;23.90;60.50;;;;;;4916036;29;20111;-77
2023/07/26 11:15:51;;;;;;;7.55;2.25;;;24.20;59.70;;;;;;4916043;29;20099;-77
2023/07/26 11:18:20;;;;;;;5.85;1.85;;;24.30;60.20;;;;;;4900930;29;20069;-77
2023/07/26 11:20:51;;;;;;;4.32;1.80;;;24.40;58.40;;;;;;4918846;29;20040;-77
2023/07/26 11:23:29;;;;;;;4.07;1.70;;;24.50;58.60;;;;;;4916390;29;20154;-77
2023/07/26 11:25:59;;;;;;;4.80;1.90;;;24.50;58.60;;;;;;4917952;29;20035;-77
2023/07/26 11:28:32;;;;;;;4.18;1.90;;;24.50;58.60;;;;;;4901354;29;20039;-77
2023/07/26 11:30:58;;;;;;;4.65;2.00;;;24.60;58.50;;;;;;4899230;29;20101;-77
2023/07/26 11:33:32;;;;;;;3.92;2.10;;;24.70;58.30;;;;;;4918488;29;20064;-77
2023/07/26 11:36:00;;;;;;;5.55;2.22;;;24.70;59.10;;;;;;4899125;29;20036;-77
2023/07/26 11:38:26;;;;;;;5.00;2.17;;;24.60;59.40;;;;;;4915345;29;20028;-77
2023/07/26 11:40:56;;;;;;;7.90;2.10;;;24.30;58.50;;;;;;4915735;29;20416;-77
2023/07/26 11:43:25;;;;;;;5.80;1.70;;;24.20;59.90;;;;;;4896222;29;20035;-77
2023/07/26 11:45:52;;;;;;;3.40;1.70;;;24.40;59.70;;;;;;4899763;29;20167;-77
2023/07/26 11:48:20;;;;;;;4.53;1.63;;;24.60;57.90;;;;;;4900151;29;20060;-77
2023/07/26 11:50:49;;;;;;;7.15;1.80;;;24.50;57.90;;;;;;4914206;29;20040;-77
2023/07/26 11:53:15;;;;;;;3.53;1.63;;;24.50;58.60;;;;;;4898934;29;20020;-77
2023/07/26 11:55:44;;;;;;;4.13;1.55;;;24.60;58.80;;;;;;4901885;29;20543;-77
2023/07/26 11:58:14;;;;;;;6.18;1.85;;;24.60;59.00;;;;;;4901244;29;20039;-77
2023/07/26 12:00:43;;;;;;;4.93;1.70;;;24.50;59.50;;;;;;4918453;29;20132;-77
2023/07/26 12:03:10;;;;;;;5.60;1.90;;;24.40;59.80;;;;;;4900308;29;20047;-80
2023/07/26 12:05:42;;;;;;;4.15;1.83;;;24.30;60.20;;;;;;4898723;29;20083;-80
2023/07/26 12:08:08;;;;;;;5.78;2.15;;;24.30;61.10;;;;;;4901748;29;20574;-80
2023/07/26 12:10:37;;;;;;;4.95;1.58;;;24.10;61.10;;;;;;4914623;29;20084;-82
2023/07/26 12:13:07;;;;;;;4.72;2.20;;;23.80;61.40;;;;;;4902607;29;20121;-77
2023/07/26 12:15:58;;;;;;;4.13;1.58;;;24.00;63.10;;;;;;4918105;29;20028;-80
2023/07/26 12:18:25;;;;;;;6.38;1.83;;;24.50;60.80;;;;;;4903651;29;20023;-79
2023/07/26 12:21:06;;;;;;;4.63;1.50;;;24.80;61.10;;;;;;4917393;29;20028;-79
2023/07/26 12:23:57;;;;;;;5.25;1.60;;;24.90;59.90;;;;;;4920599;29;20110;-78
2023/07/26 12:26:31;;;;;;;2.13;1.23;;;24.70;60.20;;;;;;4901984;29;20032;-78
2023/07/26 12:28:58;;;;;;;3.45;1.20;;;24.30;60.40;;;;;;4904258;29;20032;-78
2023/07/26 12:31:27;;;;;;;4.60;1.58;;;24.20;61.00;;;;;;4921941;29;20040;-78
2023/07/26 12:34:12;;;;;;;4.00;1.30;;;24.10;60.80;;;;;;4921982;29;20020;-78
2023/07/26 12:36:41;;;;;;;3.20;1.25;;;24.10;60.50;;;;;;4918602;29;20025;-76
2023/07/26 12:39:08;;;;;;;2.83;1.13;;;24.40;61.50;;;;;;4922246;29;20558;-78
2023/07/26 12:41:40;;;;;;;2.78;1.08;;;24.60;60.00;;;;;;4921855;29;20392;-81
2023/07/26 12:44:07;;;;;;;2.45;0.90;;;24.60;59.80;;;;;;4912583;29;20032;-79
2023/07/26 12:46:33;;;;;;;3.38;1.02;;;24.50;60.40;;;;;;4892259;29;20040;-78
2023/07/26 12:48:59;;;;;;;3.72;1.08;;;24.50;61.20;;;;;;4919861;29;20024;-78
2023/07/26 12:51:25;;;;;;;3.80;1.17;;;24.40;61.10;;;;;;4903174;29;20039;-78
2023/07/26 12:53:52;;;;;;;2.38;1.02;;;24.50;62.40;;;;;;4900985;29;20031;-78
2023/07/26 12:56:18;;;;;;;3.60;1.10;;;24.40;62.90;;;;;;4920954;29;20027;-79
2023/07/26 12:58:43;;;;;;;3.13;1.10;;;24.40;62.60;;;;;;4921071;29;20024;-78
2023/07/26 13:01:09;;;;;;;3.90;1.10;;;24.40;63.00;;;;;;4903470;29;20127;-78
2023/07/26 13:03:35;;;;;;;2.25;1.05;;;24.30;63.10;;;;;;4903011;29;20047;-78
2023/07/26 13:06:04;;;;;;;2.65;1.05;;;24.20;63.50;;;;;;4921203;29;20044;-78
2023/07/26 13:08:29;;;;;;;3.30;1.02;;;23.90;64.50;;;;;;4919787;29;20487;-78
2023/07/26 13:10:55;;;;;;;2.15;0.90;;;24.00;65.20;;;;;;4901218;29;20099;-78
2023/07/26 13:13:21;;;;;;;3.25;1.40;;;24.30;64.90;;;;;;4900261;29;20031;-79
2023/07/26 13:15:47;;;;;;;1.83;0.90;;;24.30;64.20;;;;;;4903543;29;20542;-78
2023/07/26 13:18:13;;;;;;;2.78;1.00;;;24.30;63.20;;;;;;4920605;29;20124;-78
2023/07/26 13:20:38;;;;;;;1.83;0.80;;;24.30;62.90;;;;;;4919609;29;20059;-78
2023/07/26 13:23:05;;;;;;;1.48;0.70;;;24.70;64.50;;;;;;4920635;29;20024;-78
2023/07/26 13:25:31;;;;;;;1.55;0.80;;;24.70;61.80;;;;;;4915630;29;20131;-78
2023/07/26 13:27:57;;;;;;;2.28;0.80;;;24.80;62.20;;;;;;4919696;29;20058;-78
2023/07/26 13:30:22;;;;;;;2.65;0.90;;;24.80;62.30;;;;;;4917162;29;20051;-79
2023/07/26 13:32:48;;;;;;;1.00;0.50;;;24.70;61.80;;;;;;4919625;29;20032;-78
2023/07/26 13:35:14;;;;;;;2.53;0.88;;;24.80;60.10;;;;;;4917051;29;20036;-78
2023/07/26 13:37:39;;;;;;;1.60;0.70;;;24.80;62.20;;;;;;4919596;29;20095;-79
2023/07/26 13:40:06;;;;;;;1.83;0.70;;;24.80;59.20;;;;;;4900059;29;20063;-78
2023/07/26 13:42:32;;;;;;;2.08;1.00;;;25.00;60.70;;;;;;4920109;29;20499;-78
2023/07/26 13:44:58;;;;;;;1.73;0.70;;;25.10;60.90;;;;;;4902295;29;20122;-78
2023/07/26 13:47:23;;;;;;;1.45;0.73;;;25.00;59.10;;;;;;4902621;29;20603;-79
2023/07/26 13:49:49;;;;;;;2.88;1.00;;;25.30;61.00;;;;;;4914291;29;20079;-79
2023/07/26 13:52:15;;;;;;;3.55;1.40;;;25.50;60.60;;;;;;4902370;29;20574;-79
2023/07/26 13:54:41;;;;;;;3.80;1.33;;;25.60;59.40;;;;;;4902828;29;20028;-79
2023/07/26 13:57:08;;;;;;;2.30;1.20;;;25.50;58.50;;;;;;4913008;29;20122;-79
2023/07/26 13:59:37;;;;;;;2.45;1.33;;;25.40;58.20;;;;;;4918162;29;20043;-77
2023/07/26 14:02:06;;;;;;;2.47;1.30;;;25.00;59.00;;;;;;4873567;29;20095;-77
2023/07/26 14:04:32;;;;;;;3.20;1.48;;;24.80;59.90;;;;;;4903256;29;20505;-78
2023/07/26 14:06:58;;;;;;;3.08;1.77;;;24.70;60.90;;;;;;4920378;29;20036;-78
2023/07/26 14:09:27;;;;;;;4.45;1.67;;;24.70;61.60;;;;;;4902918;29;20036;-78
2023/07/26 14:11:53;;;;;;;3.15;1.50;;;24.80;60.80;;;;;;4913479;29;20087;-78
2023/07/26 14:14:19;;;;;;;2.78;1.48;;;24.80;60.40;;;;;;4917603;29;20900;-78
2023/07/26 14:16:44;;;;;;;2.35;1.45;;;25.00;60.90;;;;;;4917616;29;20028;-78
2023/07/26 14:19:11;;;;;;;2.70;1.60;;;25.20;61.20;;;;;;4900275;29;20032;-78
2023/07/26 14:21:39;;;;;;;2.90;1.40;;;25.60;60.90;;;;;;4902284;29;20074;-78
2023/07/26 14:24:05;;;;;;;3.17;1.73;;;25.80;60.00;;;;;;4919772;29;20032;-78
2023/07/26 14:26:31;;;;;;;3.30;1.80;;;25.90;58.90;;;;;;4903339;29;20087;-78
2023/07/26 14:28:57;;;;;;;3.88;1.75;;;25.80;58.10;;;;;;4900138;29;20091;-78
2023/07/26 14:31:23;;;;;;;5.20;2.70;;;25.50;59.50;;;;;;4905346;29;20120;-78
2023/07/26 14:33:50;;;;;;;5.80;2.80;;;25.00;60.60;;;;;;4919435;29;20024;-79
2023/07/26 14:36:16;;;;;;;3.50;1.65;;;24.70;61.40;;;;;;4888651;29;20496;-78
2023/07/26 14:38:42;;;;;;;4.45;2.33;;;24.40;61.60;;;;;;4897974;29;20032;-77
2023/07/26 14:41:07;;;;;;;3.63;1.58;;;24.40;63.30;;;;;;4904515;29;20028;-78
2023/07/26 14:43:33;;;;;;;6.22;2.88;;;24.60;62.50;;;;;;4905389;29;20491;-78
2023/07/26 14:45:59;;;;;;;6.15;3.05;;;24.70;62.20;;;;;;4900318;29;20111;-78
2023/07/26 14:48:24;;;;;;;4.65;2.70;;;24.70;62.60;;;;;;4887430;29;20128;-77
2023/07/26 14:50:50;;;;;;;4.72;2.50;;;24.80;62.20;;;;;;4898147;29;20059;-78
2023/07/26 14:53:16;;;;;;;6.13;3.42;;;24.80;61.80;;;;;;4916920;29;20044;-78
2023/07/26 14:55:42;;;;;;;3.70;2.03;;;24.80;61.50;;;;;;4919247;29;20028;-78
2023/07/26 15:00:33;;;;;;;3.45;1.80;;;24.90;61.70;;;;;;4895433;29;20068;-77
2023/07/26 15:02:59;;;;;;;3.03;1.70;;;24.90;61.20;;;;;;4910741;29;20108;-78
2023/07/26 15:05:24;;;;;;;3.10;1.70;;;24.80;61.20;;;;;;4900581;29;20056;-77
2023/07/26 15:07:51;;;;;;;3.53;1.95;;;24.80;61.80;;;;;;4903163;29;20524;-77
2023/07/26 15:10:16;;;;;;;3.17;1.73;;;24.60;60.60;;;;;;4890225;29;20088;-77
2023/07/26 15:12:42;;;;;;;5.55;2.10;;;24.70;61.30;;;;;;4906239;29;20467;-77
2023/07/26 15:15:08;;;;;;;4.90;2.10;;;24.80;61.90;;;;;;4895186;29;20043;-77
2023/07/26 15:17:34;;;;;;;3.88;2.28;;;24.70;61.80;;;;;;4899214;29;20051;-77
2023/07/26 15:20:00;;;;;;;3.67;1.77;;;24.40;61.60;;;;;;4899144;29;20029;-77
2023/07/26 15:22:26;;;;;;;3.15;1.90;;;24.30;61.50;;;;;;4917050;29;20031;-81
2023/07/26 15:24:51;;;;;;;3.95;2.35;;;24.20;61.80;;;;;;4904168;29;20028;-77
2023/07/26 15:27:17;;;;;;;4.72;2.10;;;23.90;62.60;;;;;;4898998;29;20040;-77
2023/07/26 15:29:43;;;;;;;4.13;1.83;;;23.90;63.00;;;;;;4897598;29;20024;-77
2023/07/26 15:32:09;;;;;;;4.53;1.88;;;23.90;63.20;;;;;;4889153;29;20088;-77
2023/07/26 15:34:35;;;;;;;3.58;2.03;;;23.90;63.10;;;;;;4902382;29;20071;-80
2023/07/26 15:37:03;;;;;;;3.15;1.85;;;24.00;63.00;;;;;;4897782;29;20021;-78
2023/07/26 15:39:28;;;;;;;3.25;1.80;;;24.10;63.00;;;;;;4883445;29;20028;-78
2023/07/26 15:41:54;;;;;;;3.53;1.98;;;24.30;61.50;;;;;;4901859;29;20032;-78
2023/07/26 15:44:20;;;;;;;3.00;1.60;;;24.30;61.20;;;;;;4918075;29;20082;-78
2023/07/26 15:46:45;;;;;;;3.00;1.50;;;24.50;60.80;;;;;;4917698;29;20028;-78
2023/07/26 15:49:11;;;;;;;3.15;1.60;;;24.70;60.50;;;;;;4917654;29;20391;-78
2023/07/26 15:51:37;;;;;;;3.08;1.40;;;24.70;60.50;;;;;;4912935;29;20028;-76
2023/07/26 15:54:02;;;;;;;2.80;1.50;;;24.80;60.40;;;;;;4886290;29;20029;-77
2023/07/26 15:56:29;;;;;;;3.25;1.40;;;24.90;60.60;;;;;;4914838;29;20032;-77
2023/07/26 15:58:55;;;;;;;2.97;1.33;;;24.90;60.00;;;;;;4901704;29;20029;-77
2023/07/26 16:01:22;;;;;;;2.95;1.40;;;24.80;60.20;;;;;;4886747;29;20035;-77
2023/07/26 16:03:48;;;;;;;3.38;1.17;;;24.80;59.00;;;;;;4913415;29;20035;-77
2023/07/26 16:06:15;;;;;;;2.97;1.40;;;24.80;58.60;;;;;;4893956;29;20043;-77
2023/07/26 16:08:41;;;;;;;5.65;1.75;;;24.90;59.00;;;;;;4911483;29;20440;-77
2023/07/26 16:11:07;;;;;;;2.85;1.25;;;24.90;58.60;;;;;;4910995;29;20029;-77
2023/07/26 16:13:33;;;;;;;2.72;1.30;;;24.80;58.80;;;;;;4911015;29;20499;-77
2023/07/26 16:15:59;;;;;;;4.13;1.33;;;24.80;59.00;;;;;;4912450;29;20399;-77
2023/07/26 16:18:25;;;;;;;2.92;1.38;;;24.80;59.40;;;;;;4894259;29;20060;-77
2023/07/26 16:20:51;;;;;;;3.60;1.38;;;24.70;59.10;;;;;;4912175;29;20133;-77
2023/07/26 16:23:17;;;;;;;3.47;1.52;;;24.60;59.90;;;;;;4914410;29;20062;-77
2023/07/26 16:25:44;;;;;;;2.80;1.20;;;24.50;58.90;;;;;;4895487;29;20096;-77
2023/07/26 16:28:10;;;;;;;2.85;1.30;;;24.40;59.10;;;;;;4915560;29;20149;-76
2023/07/26 16:30:36;;;;;;;4.75;1.33;;;24.40;59.60;;;;;;4897096;29;20064;-77
2023/07/26 16:33:01;;;;;;;3.10;1.25;;;24.40;59.30;;;;;;4911271;29;20164;-77
2023/07/26 16:35:27;;;;;;;1.90;1.00;;;24.40;59.90;;;;;;4907207;29;20043;-77
2023/07/26 16:37:53;;;;;;;2.90;1.30;;;24.30;60.00;;;;;;4903011;29;20051;-77
2023/07/26 16:40:20;;;;;;;2.88;1.20;;;24.30;59.80;;;;;;4905407;29;20043;-77
2023/07/26 16:42:46;;;;;;;2.63;1.20;;;24.20;59.40;;;;;;4910745;29;20044;-78
2023/07/26 16:45:12;;;;;;;2.80;1.40;;;24.20;59.30;;;;;;4918741;29;20411;-77
2023/07/26 16:47:38;;;;;;;2.85;1.23;;;24.20;59.20;;;;;;4908040;29;20051;-78
2023/07/26 16:50:05;;;;;;;2.33;1.10;;;24.20;59.40;;;;;;4911060;29;20032;-78
2023/07/26 16:52:30;;;;;;;3.92;1.38;;;24.20;59.50;;;;;;4914806;29;20036;-78
2023/07/26 16:54:56;;;;;;;7.10;1.40;;;24.20;60.00;;;;;;4906058;29;20028;-78
2023/07/26 16:57:22;;;;;;;3.45;1.30;;;24.20;60.10;;;;;;4920179;29;20040;-77
2023/07/26 16:59:47;;;;;;;3.35;1.40;;;24.30;60.10;;;;;;4899208;29;20044;-75
2023/07/26 17:02:14;;;;;;;3.15;1.42;;;24.20;60.30;;;;;;4915767;29;20032;-78
2023/07/26 17:04:39;;;;;;;4.38;1.08;;;24.20;60.70;;;;;;4908781;29;20032;-78
2023/07/26 17:07:07;;;;;;;2.85;1.25;;;24.20;60.50;;;;;;4885871;29;20037;-77
2023/07/26 17:09:33;;;;;;;4.20;1.33;;;24.20;60.10;;;;;;4910913;29;20028;-78
2023/07/26 17:11:58;;;;;;;4.22;1.13;;;24.20;60.20;;;;;;4911067;29;20112;-78
2023/07/26 17:14:24;;;;;;;2.55;1.25;;;24.10;60.10;;;;;;4902063;29;20029;-78
2023/07/26 17:16:50;;;;;;;3.00;1.40;;;24.10;60.00;;;;;;4901158;29;20029;-77
2023/07/26 17:19:16;;;;;;;3.88;1.30;;;24.10;60.90;;;;;;4886095;29;20036;-77